Time;durP1;ratioP1;P1;durP2;ratioP2;P2;SDS_P1;SDS_P2;PMS_P1;PMS_P2;Temp;Humidity;BMP_temperature;BMP_pressure;BME280_temperature;BME280_humidity;BME280_pressure;Samples;Min_cycle;Max_cycle;Signal;HPM_P1;HPM_P2
2023/07/29 00:01:06;;;;;;;;;;;19.60;92.10;;;;;;5096572;28;19912;-84
2023/07/29 00:03:32;;;;;;;;;;;19.60;92.10;;;;;;5104564;28;19974;-85
2023/07/29 00:05:57;;;;;;;;;;;19.60;92.20;;;;;;5083376;28;20242;-84
2023/07/29 00:08:23;;;;;;;;;;;19.60;92.40;;;;;;5084491;28;19999;-85
2023/07/29 00:10:48;;;;;;;;;;;19.60;92.40;;;;;;5082555;28;20030;-85
2023/07/29 00:13:14;;;;;;;;;;;19.60;92.40;;;;;;5081656;28;19912;-84
2023/07/29 00:15:39;;;;;;;;;;;19.60;92.50;;;;;;5102150;28;19915;-85
2023/07/29 00:18:05;;;;;;;;;;;19.60;92.40;;;;;;5091245;28;19927;-84
2023/07/29 00:20:30;;;;;;;;;;;19.70;92.40;;;;;;5092783;28;19908;-85
2023/07/29 00:22:57;;;;;;;;;;;19.70;92.20;;;;;;5080802;28;19951;-85
2023/07/29 00:25:23;;;;;;;;;;;19.70;92.10;;;;;;5072778;28;20069;-84
2023/07/29 00:27:48;;;;;;;;;;;19.60;92.20;;;;;;5073019;28;20460;-84
2023/07/29 00:30:14;;;;;;;;;;;19.60;92.30;;;;;;5089544;28;19974;-84
2023/07/29 00:32:39;;;;;;;;;;;19.50;92.40;;;;;;5086253;28;19912;-84
2023/07/29 00:35:05;;;;;;;;;;;19.60;92.50;;;;;;5081096;28;19912;-84
2023/07/29 00:37:31;;;;;;;;;;;19.60;92.50;;;;;;5075825;28;20381;-84
2023/07/29 00:39:57;;;;;;;;;;;19.60;92.50;;;;;;5070249;28;19961;-84
2023/07/29 00:42:22;;;;;;;;;;;19.60;92.30;;;;;;5075079;28;20304;-84
2023/07/29 00:44:47;;;;;;;;;;;19.60;92.10;;;;;;5085156;28;19912;-84
2023/07/29 00:47:14;;;;;;;;;;;19.60;92.10;;;;;;5088775;28;19927;-84
2023/07/29 00:49:40;;;;;;;;;;;19.60;92.20;;;;;;5093195;28;19916;-84
2023/07/29 00:52:05;;;;;;;;;;;19.60;92.20;;;;;;5089438;28;20003;-84
2023/07/29 00:54:31;;;;;;;;;;;19.50;92.30;;;;;;5077523;28;20369;-84
2023/07/29 00:56:56;;;;;;;;;;;19.50;92.20;;;;;;5077810;28;19943;-84
2023/07/29 00:59:22;;;;;;;;;;;19.50;92.30;;;;;;5090776;28;20316;-84
2023/07/29 01:01:48;;;;;;;;;;;19.50;92.40;;;;;;5070454;28;19920;-84
2023/07/29 01:04:14;;;;;;;;;;;19.60;92.20;;;;;;5074815;28;20431;-84
2023/07/29 01:06:45;;;;;;;;;;;19.60;92.20;;;;;;5094636;28;19923;-84
2023/07/29 01:09:17;;;;;;;;;;;19.60;92.20;;;;;;5077064;28;19908;-84
2023/07/29 01:11:43;;;;;;;;;;;19.60;92.20;;;;;;5079866;28;20347;-84
2023/07/29 01:14:26;;;;;;;;;;;19.60;92.20;;;;;;5078675;28;19970;-84
2023/07/29 01:16:53;;;;;;;;;;;19.60;92.20;;;;;;5077091;28;19955;-84
2023/07/29 01:19:39;;;;;;;;;;;19.60;92.20;;;;;;5092083;28;19908;-84
2023/07/29 01:22:05;;;;;;;;;;;19.60;92.10;;;;;;5078172;28;19986;-84
2023/07/29 01:24:30;;;;;;;;;;;19.50;92.10;;;;;;5091601;28;19916;-85
2023/07/29 01:26:56;;;;;;;;;;;19.50;92.20;;;;;;5075799;28;20289;-84
2023/07/29 01:29:21;;;;;;;;;;;19.50;92.10;;;;;;5093734;28;20065;-84
2023/07/29 01:31:51;;;;;;;;;;;19.40;92.20;;;;;;5075103;28;19916;-85
2023/07/29 01:34:29;;;;;;;;;;;19.30;92.30;;;;;;5071555;28;20450;-84
2023/07/29 01:36:57;;;;;;;;;;;19.40;92.30;;;;;;5079620;28;19908;-85
2023/07/29 01:39:23;;;;;;;;;;;19.30;92.30;;;;;;5090271;28;19908;-84
2023/07/29 01:41:50;;;;;;;;;;;19.40;92.30;;;;;;5077938;28;20292;-85
2023/07/29 01:44:16;;;;;;;;;;;19.30;92.20;;;;;;5090257;28;19912;-84
2023/07/29 01:46:43;;;;;;;;;;;19.30;92.20;;;;;;5091710;28;20293;-84
2023/07/29 01:49:09;;;;;;;;;;;19.30;92.20;;;;;;5097926;28;19908;-85
2023/07/29 01:51:34;;;;;;;;;;;19.30;92.20;;;;;;5097196;28;19960;-84
2023/07/29 01:54:00;;;;;;;;;;;19.30;92.40;;;;;;5092114;28;19933;-85
2023/07/29 01:56:25;;;;;;;;;;;19.30;92.20;;;;;;5087373;28;19920;-85
2023/07/29 01:58:51;;;;;;;;;;;19.30;92.20;;;;;;5093132;28;19927;-85
2023/07/29 02:01:16;;;;;;;;;;;19.30;92.10;;;;;;5069380;28;19916;-85
2023/07/29 02:03:41;;;;;;;;;;;19.20;92.00;;;;;;5074446;28;20343;-85
2023/07/29 02:06:07;;;;;;;;;;;19.20;92.00;;;;;;5093243;28;19963;-85
2023/07/29 02:08:32;;;;;;;;;;;19.20;91.90;;;;;;5081078;28;19908;-85
2023/07/29 02:10:58;;;;;;;;;;;19.20;92.00;;;;;;5095922;28;19923;-86
2023/07/29 02:13:23;;;;;;;;;;;19.20;92.10;;;;;;5095679;28;20014;-85
2023/07/29 02:15:49;;;;;;;;;;;19.20;92.30;;;;;;5097805;28;19945;-85
2023/07/29 02:18:14;;;;;;;;;;;19.20;92.10;;;;;;5084298;28;19908;-85
2023/07/29 02:20:40;;;;;;;;;;;19.30;92.00;;;;;;5082344;28;19908;-85
2023/07/29 02:23:06;;;;;;;;;;;19.30;91.90;;;;;;5077384;28;19908;-85
2023/07/29 02:25:31;;;;;;;;;;;19.20;92.00;;;;;;5076287;28;19931;-85
2023/07/29 02:27:56;;;;;;;;;;;19.30;92.10;;;;;;5076890;28;20344;-84
2023/07/29 02:30:22;;;;;;;;;;;19.30;92.00;;;;;;5089444;28;19918;-85
2023/07/29 02:32:47;;;;;;;;;;;19.20;92.20;;;;;;5092035;28;20009;-84
2023/07/29 02:35:13;;;;;;;;;;;19.20;92.20;;;;;;5092811;28;19923;-84
2023/07/29 02:37:38;;;;;;;;;;;19.30;92.20;;;;;;5067151;28;19908;-84
2023/07/29 02:40:05;;;;;;;;;;;19.30;92.10;;;;;;5094259;28;19987;-85
2023/07/29 02:42:30;;;;;;;;;;;19.20;92.10;;;;;;5092269;28;19923;-86
2023/07/29 02:44:55;;;;;;;;;;;19.20;92.30;;;;;;5081747;28;19924;-85
2023/07/29 02:47:21;;;;;;;;;;;19.20;92.40;;;;;;5100540;28;19934;-85
2023/07/29 02:49:46;;;;;;;;;;;19.20;92.30;;;;;;5080927;28;20377;-84
2023/07/29 02:52:12;;;;;;;;;;;19.20;92.30;;;;;;5082374;28;20415;-85
2023/07/29 02:54:37;;;;;;;;;;;19.20;92.30;;;;;;5089244;28;19916;-85
2023/07/29 02:57:03;;;;;;;;;;;19.20;92.40;;;;;;5104049;28;19968;-85
2023/07/29 02:59:28;;;;;;;;;;;19.20;92.40;;;;;;5085695;28;20396;-85
2023/07/29 03:01:54;;;;;;;;;;;19.20;92.40;;;;;;5069855;28;19919;-84
2023/07/29 03:04:19;;;;;;;;;;;19.20;92.30;;;;;;5096568;28;19962;-84
2023/07/29 03:06:45;;;;;;;;;;;19.20;92.10;;;;;;5076284;28;19965;-84
2023/07/29 03:09:10;;;;;;;;;;;19.30;92.00;;;;;;5091669;28;20407;-84
2023/07/29 03:11:36;;;;;;;;;;;19.30;91.60;;;;;;5071546;28;19920;-85
2023/07/29 03:14:01;;;;;;;;;;;19.30;91.70;;;;;;5080087;28;19908;-84
2023/07/29 03:16:27;;;;;;;;;;;19.40;91.60;;;;;;5098320;28;19916;-85
2023/07/29 03:18:52;;;;;;;;;;;19.40;91.60;;;;;;5099520;28;19912;-85
2023/07/29 03:21:18;;;;;;;;;;;19.40;91.60;;;;;;5111988;28;19915;-85
2023/07/29 03:23:43;;;;;;;;;;;19.50;91.40;;;;;;5101401;28;19913;-85
2023/07/29 03:26:11;;;;;;;;;;;19.40;91.40;;;;;;5104565;28;20308;-85
2023/07/29 03:28:39;;;;;;;;;;;19.50;91.40;;;;;;5084833;28;19912;-85
2023/07/29 03:31:05;;;;;;;;;;;19.40;91.50;;;;;;5076825;28;19976;-85
2023/07/29 03:33:30;;;;;;;;;;;19.40;91.60;;;;;;5085595;28;19951;-85
2023/07/29 03:35:56;;;;;;;;;;;19.30;91.70;;;;;;5085192;28;20002;-85
2023/07/29 03:38:21;;;;;;;;;;;19.40;91.70;;;;;;5104022;28;19908;-85
2023/07/29 03:40:47;;;;;;;;;;;19.30;91.80;;;;;;5084712;28;19919;-84
2023/07/29 03:43:12;;;;;;;;;;;19.30;92.00;;;;;;5105030;28;19914;-84
2023/07/29 03:45:38;;;;;;;;;;;19.30;92.00;;;;;;5082426;28;19938;-85
2023/07/29 03:48:04;;;;;;;;;;;19.30;91.80;;;;;;5095419;28;19962;-85
2023/07/29 03:50:30;;;;;;;;;;;19.30;91.80;;;;;;5084702;28;19912;-85
2023/07/29 03:52:55;;;;;;;;;;;19.30;91.80;;;;;;5085068;28;19912;-84
2023/07/29 03:55:21;;;;;;;;;;;19.30;91.90;;;;;;5084614;28;19917;-84
2023/07/29 03:57:46;;;;;;;;;;;19.30;91.90;;;;;;5079637;28;19962;-84
2023/07/29 04:00:12;;;;;;;;;;;19.40;91.80;;;;;;5087671;28;20234;-84
2023/07/29 04:02:38;;;;;;;;;;;19.30;91.80;;;;;;5084934;28;19930;-84
2023/07/29 04:05:04;;;;;;;;;;;19.30;91.90;;;;;;5111259;28;19925;-84
2023/07/29 04:07:30;;;;;;;;;;;19.30;92.00;;;;;;5111625;28;19912;-85
2023/07/29 04:09:56;;;;;;;;;;;19.30;92.00;;;;;;5087571;28;19920;-84
2023/07/29 04:12:22;;;;;;;;;;;19.30;92.00;;;;;;5087011;28;19915;-85
2023/07/29 04:14:47;;;;;;;;;;;19.30;92.00;;;;;;5103814;28;19916;-85
2023/07/29 04:17:13;;;;;;;;;;;19.40;91.70;;;;;;5102957;28;19990;-85
2023/07/29 04:19:38;;;;;;;;;;;19.40;91.70;;;;;;5077588;28;19908;-85
2023/07/29 04:22:04;;;;;;;;;;;19.40;91.70;;;;;;5085721;28;19915;-85
2023/07/29 04:24:29;;;;;;;;;;;19.40;91.90;;;;;;5085466;28;19909;-85
2023/07/29 04:26:55;;;;;;;;;;;19.40;91.90;;;;;;5081928;28;19916;-85
2023/07/29 04:29:22;;;;;;;;;;;19.50;91.90;;;;;;5112599;28;19966;-85
2023/07/29 04:31:48;;;;;;;;;;;19.50;91.70;;;;;;5089452;28;19912;-85
2023/07/29 04:34:13;;;;;;;;;;;19.50;91.80;;;;;;5078456;28;19974;-85
2023/07/29 04:36:38;;;;;;;;;;;19.40;91.90;;;;;;5085160;28;19908;-85
2023/07/29 04:39:04;;;;;;;;;;;19.50;92.10;;;;;;5103712;28;19995;-85
2023/07/29 04:41:29;;;;;;;;;;;19.50;92.10;;;;;;5102965;28;19930;-85
2023/07/29 04:43:55;;;;;;;;;;;19.50;92.10;;;;;;5082566;28;19908;-85
2023/07/29 04:46:20;;;;;;;;;;;19.50;92.00;;;;;;5101738;28;19930;-84
2023/07/29 04:48:46;;;;;;;;;;;19.50;91.90;;;;;;5083741;28;19919;-85
2023/07/29 04:51:11;;;;;;;;;;;19.60;91.80;;;;;;5083301;28;19908;-84
2023/07/29 04:53:38;;;;;;;;;;;19.60;91.50;;;;;;5101699;28;19912;-85
2023/07/29 04:56:03;;;;;;;;;;;19.60;91.50;;;;;;5100117;28;20300;-84
2023/07/29 04:58:29;;;;;;;;;;;19.60;91.20;;;;;;5078808;28;19908;-84
2023/07/29 05:00:57;;;;;;;;;;;19.50;91.20;;;;;;5094729;28;20515;-84
2023/07/29 05:03:23;;;;;;;;;;;19.50;91.50;;;;;;5076385;28;20015;-84
2023/07/29 05:05:48;;;;;;;;;;;19.50;91.30;;;;;;5093614;28;20436;-84
2023/07/29 05:08:14;;;;;;;;;;;19.60;91.20;;;;;;5077443;28;20514;-85
2023/07/29 05:10:39;;;;;;;;;;;19.60;90.80;;;;;;5076328;28;20388;-84
2023/07/29 05:13:04;;;;;;;;;;;19.60;90.90;;;;;;5076867;28;20423;-85
2023/07/29 05:15:30;;;;;;;;;;;19.50;90.70;;;;;;5096314;28;20342;-84
2023/07/29 05:17:56;;;;;;;;;;;19.50;90.90;;;;;;5068073;28;20297;-85
2023/07/29 05:20:21;;;;;;;;;;;19.50;90.70;;;;;;5076598;28;19916;-85
2023/07/29 05:22:46;;;;;;;;;;;19.50;90.50;;;;;;5095757;28;19916;-85
2023/07/29 05:25:12;;;;;;;;;;;19.40;90.70;;;;;;5094649;28;19942;-84
2023/07/29 05:27:37;;;;;;;;;;;19.40;90.60;;;;;;5077799;28;20306;-85
2023/07/29 05:30:04;;;;;;;;;;;19.40;90.40;;;;;;5076171;28;19912;-84
2023/07/29 05:32:29;;;;;;;;;;;19.50;90.40;;;;;;5083183;28;19915;-84
2023/07/29 05:34:55;;;;;;;;;;;19.50;90.30;;;;;;5101159;28;19912;-84
2023/07/29 05:37:20;;;;;;;;;;;19.50;90.30;;;;;;5081434;28;20443;-84
2023/07/29 05:39:45;;;;;;;;;;;19.50;89.70;;;;;;5082466;28;19912;-84
2023/07/29 05:42:11;;;;;;;;;;;19.60;89.80;;;;;;5100693;28;19947;-85
2023/07/29 05:44:37;;;;;;;;;;;19.60;89.50;;;;;;5081909;28;20404;-84
2023/07/29 05:47:02;;;;;;;;;;;19.60;89.30;;;;;;5100173;28;19912;-84
2023/07/29 05:49:28;;;;;;;;;;;19.60;89.30;;;;;;5100614;22;19940;-90
2023/07/29 05:51:53;;;;;;;;;;;19.60;88.90;;;;;;5042175;28;19916;-90
2023/07/29 05:54:19;;;;;;;;;;;19.60;89.10;;;;;;5053929;28;20385;-91
2023/07/29 05:56:44;;;;;;;;;;;19.50;89.10;;;;;;5062459;28;19917;-90
2023/07/29 05:59:10;;;;;;;;;;;19.50;89.30;;;;;;5064871;28;19908;-90
2023/07/29 06:01:35;;;;;;;;;;;19.60;89.60;;;;;;5056567;28;19909;-90
2023/07/29 06:04:01;;;;;;;;;;;19.60;88.80;;;;;;5055297;28;19935;-90
2023/07/29 06:06:26;;;;;;;;;;;19.60;88.80;;;;;;5054292;28;19916;-90
2023/07/29 06:08:52;;;;;;;;;;;19.60;88.90;;;;;;5054719;28;20352;-90
2023/07/29 06:11:17;;;;;;;;;;;19.60;88.90;;;;;;5072811;28;19958;-91
2023/07/29 06:13:43;;;;;;;;;;;19.60;88.70;;;;;;5054608;28;19936;-89
2023/07/29 06:16:08;;;;;;;;;;;19.50;88.50;;;;;;5054187;28;19952;-90
2023/07/29 06:18:34;;;;;;;;;;;19.60;88.10;;;;;;5072630;28;19939;-90
2023/07/29 06:20:59;;;;;;;;;;;19.50;88.30;;;;;;5071905;28;19999;-89
2023/07/29 06:23:25;;;;;;;;;;;19.50;88.10;;;;;;5071155;28;19955;-90
2023/07/29 06:25:50;;;;;;;;;;;19.50;87.90;;;;;;5071828;28;19917;-89
2023/07/29 06:28:15;;;;;;;;;;;19.50;88.00;;;;;;5071991;28;19909;-89
2023/07/29 06:30:41;;;;;;;;;;;19.50;88.20;;;;;;5071624;28;19912;-89
2023/07/29 06:33:06;;;;;;;;;;;19.50;87.90;;;;;;5072448;28;19909;-90
2023/07/29 06:35:32;;;;;;;;;;;19.50;87.80;;;;;;5053693;28;19909;-89
2023/07/29 06:37:57;;;;;;;;;;;19.50;87.50;;;;;;5054051;28;19912;-90
2023/07/29 06:40:23;;;;;;;;;;;19.50;86.90;;;;;;5077291;28;19909;-89
2023/07/29 06:42:48;;;;;;;;;;;19.40;85.70;;;;;;5052220;28;20389;-89
2023/07/29 06:45:15;;;;;;;;;;;19.30;84.90;;;;;;5071509;28;20049;-89
2023/07/29 06:47:40;;;;;;;;;;;19.30;85.30;;;;;;5054113;28;20351;-90
2023/07/29 06:50:06;;;;;;;;;;;19.30;85.70;;;;;;5063590;28;19916;-90
2023/07/29 06:52:31;;;;;;;;;;;19.30;85.10;;;;;;5053556;28;20374;-89
2023/07/29 06:54:57;;;;;;;;;;;19.30;85.10;;;;;;5071423;28;19917;-89
2023/07/29 06:57:22;;;;;;;;;;;19.40;84.20;;;;;;5053551;28;19908;-90
2023/07/29 06:59:48;;;;;;;;;;;19.50;84.40;;;;;;5050455;28;19909;-89
2023/07/29 07:02:13;;;;;;;;;;;19.50;84.20;;;;;;5047172;28;19909;-89
2023/07/29 07:04:39;;;;;;;;;;;19.60;83.20;;;;;;5053060;28;19930;-90
2023/07/29 07:07:04;;;;;;;;;;;19.50;82.80;;;;;;5071684;28;19913;-89
2023/07/29 07:09:30;;;;;;;;;;;19.40;83.60;;;;;;5053480;28;19924;-89
2023/07/29 07:11:55;;;;;;;;;;;19.40;83.00;;;;;;5070492;28;19952;-89
2023/07/29 07:14:21;;;;;;;;;;;19.40;83.00;;;;;;5070877;28;20321;-90
2023/07/29 07:16:46;;;;;;;;;;;19.50;82.90;;;;;;5070195;28;19913;-90
2023/07/29 07:19:12;;;;;;;;;;;19.50;82.60;;;;;;5054276;28;19979;-90
2023/07/29 07:21:37;;;;;;;;;;;19.50;82.40;;;;;;5053989;28;19912;-90
2023/07/29 07:24:03;;;;;;;;;;;19.50;81.00;;;;;;5045819;28;20332;-89
2023/07/29 07:26:28;;;;;;;;;;;19.50;82.20;;;;;;5053056;28;19920;-90
2023/07/29 07:28:54;;;;;;;;;;;19.30;82.30;;;;;;5052668;28;19927;-90
2023/07/29 07:31:19;;;;;;;;;;;19.20;82.20;;;;;;5071124;28;19915;-89
2023/07/29 07:33:44;;;;;;;;;;;19.20;82.10;;;;;;5053670;28;20011;-90
2023/07/29 07:36:10;;;;;;;;;;;19.30;81.70;;;;;;5053017;28;19908;-90
2023/07/29 07:38:35;;;;;;;;;;;19.30;81.30;;;;;;5053672;28;19908;-90
2023/07/29 07:41:01;;;;;;;;;;;19.30;81.60;;;;;;5072504;28;19913;-89
2023/07/29 07:43:26;;;;;;;;;;;19.40;81.70;;;;;;5056965;28;19947;-90
2023/07/29 07:45:57;;;;;;;;;;;19.40;81.80;;;;;;5056086;28;19935;-89
2023/07/29 07:48:23;;;;;;;;;;;19.60;82.20;;;;;;5057751;28;19915;-90
2023/07/29 07:50:48;;;;;;;;;;;19.70;81.50;;;;;;5056299;28;19916;-90
2023/07/29 07:53:13;;;;;;;;;;;19.70;80.20;;;;;;5056685;28;19932;-90
2023/07/29 07:55:39;;;;;;;;;;;19.80;79.70;;;;;;5056735;28;20297;-89
2023/07/29 07:58:04;;;;;;;;;;;19.90;80.10;;;;;;5057112;28;19923;-90
2023/07/29 08:00:30;;;;;;;;;;;20.00;78.30;;;;;;5049744;28;19916;-89
2023/07/29 08:02:55;;;;;;;;;;;20.00;79.40;;;;;;5056414;28;19915;-90
2023/07/29 08:05:23;;;;;;;;;;;20.00;78.50;;;;;;5072982;28;20007;-90
2023/07/29 08:07:49;;;;;;;;;;;20.10;78.90;;;;;;5067872;28;19908;-89
2023/07/29 08:10:14;;;;;;;;;;;20.10;78.60;;;;;;5059013;28;19913;-89
2023/07/29 08:12:40;;;;;;;;;;;20.40;78.60;;;;;;5058197;28;19908;-89
2023/07/29 08:15:05;;;;;;;;;;;20.50;76.60;;;;;;5075069;28;19919;-89
2023/07/29 08:17:31;;;;;;;;;;;20.60;76.40;;;;;;5057010;28;19913;-89
2023/07/29 08:19:56;;;;;;;;;;;20.50;75.50;;;;;;5074193;28;19909;-89
2023/07/29 08:22:22;;;;;;;;;;;20.50;77.00;;;;;;5056604;28;19909;-90
2023/07/29 08:24:47;;;;;;;;;;;20.70;75.60;;;;;;5056758;28;19965;-89
2023/07/29 08:27:13;;;;;;;;;;;20.80;75.80;;;;;;5056237;28;19916;-89
2023/07/29 08:29:38;;;;;;;;;;;20.90;75.20;;;;;;5055093;28;19909;-89
2023/07/29 08:32:04;;;;;;;;;;;20.90;74.60;;;;;;5080380;28;19913;-89
2023/07/29 08:34:29;;;;;;;;;;;21.00;75.40;;;;;;5050630;28;19909;-89
2023/07/29 08:36:55;;;;;;;;;;;20.90;75.10;;;;;;5052919;28;19951;-88
2023/07/29 08:39:21;;;;;;;;;;;20.80;75.90;;;;;;5064795;28;19908;-88
2023/07/29 08:41:59;;;;;;;;;;;20.90;75.10;;;;;;5054589;28;19908;-88
2023/07/29 08:44:26;;;;;;;;;;;21.00;75.30;;;;;;5055486;28;20335;-88
2023/07/29 08:46:53;;;;;;;;;;;21.00;75.70;;;;;;5056409;28;20007;-88
2023/07/29 08:49:19;;;;;;;;;;;21.10;74.70;;;;;;5073783;28;19909;-90
2023/07/29 08:51:46;;;;;;;;;;;21.10;73.60;;;;;;5056365;28;19920;-88
2023/07/29 08:54:12;;;;;;;;;;;21.10;73.50;;;;;;5054685;28;19908;-87
2023/07/29 08:56:38;;;;;;;;;;;21.00;73.30;;;;;;5073111;28;19920;-88
2023/07/29 08:59:04;;;;;;;;;;;21.00;73.80;;;;;;5069493;28;19999;-88
2023/07/29 09:01:30;;;;;;;;;;;20.90;74.00;;;;;;5072988;28;19908;-88
2023/07/29 09:03:56;;;;;;;;;;;21.00;73.50;;;;;;5053775;28;20066;-88
2023/07/29 09:06:22;;;;;;;;;;;21.00;73.80;;;;;;5071983;28;19916;-88
2023/07/29 09:08:49;;;;;;;;;;;21.10;73.60;;;;;;5055307;28;19917;-88
2023/07/29 09:11:16;;;;;;;;;;;21.20;72.40;;;;;;5055100;28;19999;-89
2023/07/29 09:13:42;;;;;;;;;;;21.40;73.30;;;;;;5054071;28;20003;-88
2023/07/29 09:16:08;;;;;;;;;;;21.70;70.60;;;;;;5051427;28;19999;-88
2023/07/29 09:18:34;;;;;;;;;;;21.70;71.50;;;;;;5053305;28;20362;-88
2023/07/29 09:21:00;;;;;;;;;;;21.90;70.90;;;;;;5053699;28;19958;-88
2023/07/29 09:23:27;;;;;;;;;;;21.90;70.50;;;;;;5054764;28;19909;-89
2023/07/29 09:26:00;;;;;;;;;;;21.90;70.30;;;;;;5054295;28;20357;-87
2023/07/29 09:28:27;;;;;;;;;;;21.80;70.20;;;;;;5054040;28;19912;-88
2023/07/29 09:30:53;;;;;;;;;;;21.70;70.30;;;;;;5052236;28;19962;-88
2023/07/29 09:33:18;;;;;;;;;;;21.80;71.50;;;;;;5049711;28;19947;-88
2023/07/29 09:35:44;;;;;;;;;;;21.90;70.30;;;;;;5053786;28;20007;-88
2023/07/29 09:38:14;;;;;;;;;;;21.80;69.50;;;;;;5050421;28;19915;-88
2023/07/29 09:40:39;;;;;;;;;;;21.70;69.80;;;;;;5053367;28;19912;-88
2023/07/29 09:43:06;;;;;;;;;;;21.80;70.80;;;;;;5054156;28;19935;-88
2023/07/29 09:45:33;;;;;;;;;;;21.70;71.70;;;;;;5069859;28;19923;-87
2023/07/29 09:47:58;;;;;;;;;;;21.90;71.10;;;;;;5069318;28;20007;-89
2023/07/29 09:50:24;;;;;;;;;;;22.00;70.80;;;;;;5052359;28;19952;-88
2023/07/29 09:52:51;;;;;;;;;;;22.00;70.90;;;;;;5071028;28;19909;-88
2023/07/29 09:55:26;;;;;;;;;;;22.10;69.90;;;;;;5053563;28;19935;-88
2023/07/29 09:58:01;;;;;;;;;;;22.20;69.80;;;;;;5070668;28;20416;-88
2023/07/29 10:00:27;;;;;;;;;;;22.50;69.60;;;;;;5053613;28;19915;-88
2023/07/29 10:02:53;;;;;;;;;;;22.50;68.80;;;;;;5051901;28;20350;-88
2023/07/29 10:05:21;;;;;;;;;;;22.60;68.30;;;;;;5071532;28;19913;-88
2023/07/29 10:07:47;;;;;;;;;;;22.50;68.00;;;;;;5071250;28;19909;-88
2023/07/29 10:10:12;;;;;;;;;;;22.50;69.10;;;;;;5070720;28;20004;-88
2023/07/29 10:12:39;;;;;;;;;;;22.50;68.50;;;;;;5053594;28;20278;-88
2023/07/29 10:15:05;;;;;;;;;;;22.50;69.60;;;;;;5053455;28;19908;-88
2023/07/29 10:17:33;;;;;;;;;;;22.30;68.50;;;;;;5054225;28;19915;-88
2023/07/29 10:19:59;;;;;;;;;;;22.30;69.00;;;;;;5071146;28;19909;-89
2023/07/29 10:22:27;;;;;;;;;;;22.30;69.50;;;;;;5071234;28;20274;-88
2023/07/29 10:24:54;;;;;;;;;;;22.40;68.30;;;;;;5054911;28;19908;-87
2023/07/29 10:27:20;;;;;;;;;;;22.60;68.60;;;;;;5071861;28;19923;-87
2023/07/29 10:29:46;;;;;;;;;;;22.70;67.80;;;;;;5070492;28;19942;-89
2023/07/29 10:32:12;;;;;;;;;;;22.90;67.70;;;;;;5054738;28;19909;-89
2023/07/29 10:34:38;;;;;;;;;;;22.80;67.30;;;;;;5072322;28;19912;-89
2023/07/29 10:37:04;;;;;;;;;;;22.80;68.70;;;;;;5073752;28;19908;-89
2023/07/29 10:39:40;;;;;;;;;;;22.80;68.30;;;;;;5055004;28;19908;-89
2023/07/29 10:42:06;;;;;;;;;;;22.80;68.20;;;;;;5073065;28;20486;-88
2023/07/29 10:44:43;;;;;;;;;;;22.70;68.30;;;;;;5070891;28;19971;-89
2023/07/29 10:47:16;;;;;;;;;;;22.80;67.90;;;;;;5047450;28;20328;-89
2023/07/29 10:49:45;;;;;;;;;;;22.70;68.50;;;;;;5054428;28;20463;-89
2023/07/29 10:52:15;;;;;;;;;;;22.60;67.90;;;;;;5065079;28;19909;-89
2023/07/29 10:54:45;;;;;;;;;;;22.90;68.80;;;;;;5073075;28;19908;-89
2023/07/29 10:57:17;;;;;;;;;;;23.00;68.20;;;;;;5054766;28;19909;-89
2023/07/29 10:59:54;;;;;;;;;;;23.00;67.40;;;;;;5071522;28;19909;-89
2023/07/29 11:02:20;;;;;;;;;;;23.10;67.30;;;;;;5054567;28;19908;-89
2023/07/29 11:04:46;;;;;;;;;;;23.10;67.40;;;;;;5070978;28;19916;-89
2023/07/29 11:07:14;;;;;;;;;;;23.00;67.70;;;;;;5072065;28;19978;-89
2023/07/29 11:09:49;;;;;;;;;;;23.00;66.50;;;;;;5055102;28;19908;-89
2023/07/29 11:12:33;;;;;;;;;;;23.10;67.50;;;;;;5064462;28;19943;-89
2023/07/29 11:15:02;;;;;;;;;;;23.20;68.90;;;;;;5055154;28;19931;-89
2023/07/29 11:17:29;;;;;;;;;;;23.40;66.90;;;;;;5076021;28;19909;-89
2023/07/29 11:19:55;;;;;;;;;;;23.20;66.30;;;;;;5058275;28;19908;-88
2023/07/29 11:22:21;;;;;;;;;;;23.10;68.50;;;;;;5050395;28;20079;-89
2023/07/29 11:24:46;;;;;;;;;;;23.00;67.90;;;;;;5060374;28;19912;-89
2023/07/29 11:27:12;;;;;;;;;;;23.20;67.90;;;;;;5059888;28;19918;-89
2023/07/29 11:29:37;;;;;;;;;;;23.30;66.60;;;;;;5058644;28;20011;-89
2023/07/29 11:32:02;;;;;;;;;;;23.50;66.60;;;;;;5058362;28;19923;-89
2023/07/29 11:34:34;;;;;;;;;;;23.50;65.60;;;;;;5058441;28;19913;-88
2023/07/29 11:37:00;;;;;;;;;;;23.50;66.10;;;;;;5057980;28;20373;-89
2023/07/29 11:39:25;;;;;;;;;;;23.40;66.10;;;;;;5057700;28;19915;-89
2023/07/29 11:41:50;;;;;;;;;;;23.20;65.80;;;;;;5049110;28;19945;-89
2023/07/29 11:44:17;;;;;;;;;;;23.30;66.20;;;;;;5057422;28;19909;-89
2023/07/29 11:46:43;;;;;;;;;;;23.40;66.10;;;;;;5059164;28;19939;-89
2023/07/29 11:49:08;;;;;;;;;;;23.50;65.90;;;;;;5067750;28;19913;-89
2023/07/29 11:51:34;;;;;;;;;;;23.50;65.80;;;;;;5126392;22;19947;-84
2023/07/29 11:54:00;;;;;;;;;;;23.50;65.60;;;;;;5094087;28;20668;-86
2023/07/29 11:56:25;;;;;;;;;;;23.40;66.00;;;;;;5094151;28;19920;-86
2023/07/29 11:58:51;;;;;;;;;;;23.50;65.30;;;;;;5077102;28;19931;-86
2023/07/29 12:01:22;;;;;;;;;;;23.40;65.50;;;;;;5077163;28;19951;-86
2023/07/29 12:03:47;;;;;;;;;;;23.30;65.80;;;;;;5077542;28;19948;-86
2023/07/29 12:06:13;;;;;;;;;;;23.50;66.10;;;;;;5096079;28;19974;-86
2023/07/29 12:08:46;;;;;;;;;;;23.60;66.30;;;;;;5077242;28;19973;-86
2023/07/29 12:11:12;;;;;;;;;;;24.00;66.00;;;;;;5100018;28;19978;-86
2023/07/29 12:13:38;;;;;;;;;;;24.20;64.70;;;;;;5098998;28;20370;-85
2023/07/29 12:16:04;;;;;;;;;;;24.30;63.10;;;;;;5097238;28;19916;-86
2023/07/29 12:18:32;;;;;;;;;;;24.30;63.30;;;;;;5096193;28;19908;-86
2023/07/29 12:20:58;;;;;;;;;;;24.40;63.40;;;;;;5097754;28;19900;-85
2023/07/29 12:23:31;;;;;;;;;;;24.30;63.10;;;;;;5095025;28;20365;-86
2023/07/29 12:25:58;;;;;;;;;;;24.10;64.00;;;;;;5102842;28;19938;-86
2023/07/29 12:28:24;;;;;;;;;;;23.80;63.50;;;;;;5078330;28;19908;-86
2023/07/29 12:30:53;;;;;;;;;;;23.60;64.30;;;;;;5095050;28;19919;-86
2023/07/29 12:33:31;;;;;;;;;;;23.40;65.60;;;;;;5077975;28;20340;-86
2023/07/29 12:35:56;;;;;;;;;;;23.40;66.40;;;;;;5077669;28;19915;-85
2023/07/29 12:38:22;;;;;;;;;;;23.50;66.40;;;;;;5078996;28;19908;-86
2023/07/29 12:40:47;;;;;;;;;;;23.60;65.80;;;;;;5100490;28;19908;-86
2023/07/29 12:43:19;;;;;;;;;;;23.80;65.70;;;;;;5078895;28;19912;-85
2023/07/29 12:45:57;;;;;;;;;;;24.00;65.00;;;;;;5095763;28;19916;-85
2023/07/29 12:48:25;;;;;;;;;;;24.10;64.20;;;;;;5086887;28;19912;-86
2023/07/29 12:50:53;;;;;;;;;;;24.10;64.40;;;;;;5076068;28;19923;-86
2023/07/29 12:53:19;;;;;;;;;;;24.30;64.80;;;;;;5094421;28;19908;-85
2023/07/29 12:55:47;;;;;;;;;;;24.20;64.50;;;;;;5076065;28;20020;-86
2023/07/29 12:58:29;;;;;;;;;;;24.20;64.10;;;;;;5093895;28;19908;-85
2023/07/29 13:00:55;;;;;;;;;;;24.40;63.20;;;;;;5076231;28;19920;-86
2023/07/29 13:03:23;;;;;;;;;;;24.50;64.00;;;;;;5077201;28;20348;-86
2023/07/29 13:05:51;;;;;;;;;;;24.50;62.60;;;;;;5094643;28;19920;-87
2023/07/29 13:08:17;;;;;;;;;;;24.40;63.40;;;;;;5077839;28;19927;-86
2023/07/29 13:10:42;;;;;;;;;;;24.20;63.50;;;;;;5079636;28;19973;-86
2023/07/29 13:13:08;;;;;;;;;;;24.20;63.20;;;;;;5080825;28;20415;-85
2023/07/29 13:15:33;;;;;;;;;;;23.80;63.30;;;;;;5098006;28;19919;-86
2023/07/29 13:17:59;;;;;;;;;;;23.60;64.50;;;;;;5101358;28;19919;-86
2023/07/29 13:20:24;;;;;;;;;;;23.60;65.30;;;;;;5115736;28;19940;-85
2023/07/29 13:22:50;;;;;;;;;;;23.50;65.30;;;;;;5097677;28;19922;-84
2023/07/29 13:25:15;;;;;;;;;;;23.50;65.40;;;;;;5114404;28;19908;-84
2023/07/29 13:27:41;;;;;;;;;;;23.60;64.90;;;;;;5102939;28;19908;-85
2023/07/29 13:30:06;;;;;;;;;;;23.60;65.00;;;;;;5100428;28;20458;-86
2023/07/29 13:32:32;;;;;;;;;;;23.90;64.40;;;;;;5099845;28;19942;-85
2023/07/29 13:34:57;;;;;;;;;;;23.90;63.80;;;;;;5081121;28;20395;-86
2023/07/29 13:37:23;;;;;;;;;;;23.80;63.70;;;;;;5109831;27;19927;-84
2023/07/29 13:39:48;;;;;;;;;;;23.90;63.90;;;;;;5114840;28;19907;-82
2023/07/29 13:42:14;;;;;;;;;;;24.00;64.30;;;;;;5077317;28;20317;-85
2023/07/29 13:44:39;;;;;;;;;;;24.10;64.40;;;;;;5081142;28;20400;-85
2023/07/29 13:47:05;;;;;;;;;;;24.00;64.10;;;;;;5083070;28;19920;-86
2023/07/29 13:49:31;;;;;;;;;;;24.00;64.00;;;;;;5072242;28;19912;-85
2023/07/29 13:51:56;;;;;;;;;;;23.90;66.80;;;;;;5073756;28;20360;-84
2023/07/29 13:54:22;;;;;;;;;;;23.80;65.40;;;;;;5094642;28;19923;-85
2023/07/29 13:56:47;;;;;;;;;;;23.70;65.60;;;;;;5092772;28;19912;-86
2023/07/29 13:59:13;;;;;;;;;;;23.50;66.50;;;;;;5079194;28;19916;-86
2023/07/29 14:01:38;;;;;;;;;;;23.60;66.00;;;;;;5083395;28;19911;-85
2023/07/29 14:04:04;;;;;;;;;;;23.50;65.70;;;;;;5098975;28;19956;-85
2023/07/29 14:06:29;;;;;;;;;;;23.30;66.00;;;;;;5079340;28;20339;-86
2023/07/29 14:08:56;;;;;;;;;;;23.20;68.30;;;;;;5058362;28;21854;-85
2023/07/29 14:11:22;;;;;;;;;;;23.10;70.50;;;;;;5074310;28;20351;-85